createdAt,value
2023-02-26T07:12:40.381Z,1.90
2023-02-26T07:15:42.022Z,2.10
2023-02-26T07:18:43.707Z,2.10
2023-02-26T07:21:45.364Z,2.20
2023-02-26T07:24:47.009Z,2.20
2023-02-26T07:27:48.640Z,2.30
2023-02-26T07:30:50.448Z,2.30
2023-02-26T07:33:52.214Z,2.30
2023-02-26T07:36:53.858Z,2.30
2023-02-26T07:39:55.604Z,2.30
2023-02-26T07:42:57.575Z,2.40
2023-02-26T07:45:59.306Z,2.40
2023-02-26T07:49:00.963Z,2.40
2023-02-26T07:52:02.833Z,2.40
2023-02-26T07:55:04.807Z,2.40
2023-02-26T07:58:06.504Z,2.30
2023-02-26T08:01:08.216Z,2.20
2023-02-26T08:04:09.942Z,2.20
2023-02-26T08:07:11.685Z,2.20
2023-02-26T08:10:13.937Z,2.20
2023-02-26T08:13:15.635Z,2.20
2023-02-26T08:16:17.317Z,2.20
2023-02-26T08:19:19.172Z,2.30
2023-02-26T08:22:21.712Z,2.40
2023-02-26T08:25:23.354Z,2.50
2023-02-26T08:28:24.988Z,2.50
2023-02-26T08:31:28.176Z,2.60
2023-02-26T08:34:30.191Z,2.60
2023-02-26T08:37:31.874Z,2.80
2023-02-26T08:40:33.504Z,2.90
2023-02-26T08:43:35.169Z,3.00
2023-02-26T08:46:36.870Z,3.00
2023-02-26T08:49:38.699Z,3.00
2023-02-26T08:52:40.702Z,3.10
2023-02-26T08:55:44.759Z,3.10
2023-02-26T08:58:46.454Z,3.10
2023-02-26T09:01:48.442Z,3.20
2023-02-26T09:04:50.083Z,3.30
2023-02-26T09:07:51.726Z,3.30
2023-02-26T09:10:53.373Z,3.50
2023-02-26T09:13:55.018Z,3.50
2023-02-26T09:16:56.683Z,3.60
2023-02-26T09:19:58.346Z,3.70
2023-02-26T09:23:00.225Z,3.90
2023-02-26T09:26:02.032Z,3.90
2023-02-26T09:29:04.398Z,4.00
2023-02-26T09:32:08.454Z,4.20
2023-02-26T09:35:10.276Z,4.30
2023-02-26T09:38:11.980Z,4.40
2023-02-26T09:41:21.143Z,4.50
2023-02-26T09:44:29.288Z,4.50
2023-02-26T09:47:41.683Z,4.60
2023-02-26T09:50:48.460Z,4.70
2023-02-26T09:53:50.440Z,4.80
2023-02-26T09:56:52.989Z,5.00
2023-02-26T09:59:54.650Z,5.10
2023-02-26T10:03:06.491Z,5.30
2023-02-26T10:06:21.464Z,5.50
2023-02-26T10:09:32.097Z,5.50
2023-02-26T10:12:35.445Z,5.50
2023-02-26T10:15:40.056Z,5.50
2023-02-26T10:18:46.406Z,5.40
2023-02-26T10:22:02.084Z,5.30
2023-02-26T10:25:09.380Z,5.20
2023-02-26T10:28:26.297Z,5.10
2023-02-26T10:31:49.621Z,5.10
2023-02-26T10:35:04.845Z,5.20
2023-02-26T10:38:11.251Z,5.40
2023-02-26T10:41:15.749Z,5.50
2023-02-26T10:44:25.017Z,5.70
2023-02-26T10:47:58.549Z,6.00
2023-02-26T10:51:01.470Z,6.20
2023-02-26T10:54:23.913Z,6.40
2023-02-26T10:57:28.764Z,6.40
2023-02-26T11:00:30.639Z,6.40
2023-02-26T11:03:40.416Z,6.40
2023-02-26T11:07:00.815Z,6.50
2023-02-26T11:10:02.464Z,6.70
2023-02-26T11:13:04.350Z,6.80
2023-02-26T11:16:14.196Z,6.80
2023-02-26T11:19:16.386Z,6.80
2023-02-26T11:22:18.062Z,6.80
2023-02-26T11:25:22.614Z,6.80
2023-02-26T11:28:51.256Z,6.70
2023-02-26T11:31:55.366Z,6.70
2023-02-26T11:34:57.167Z,6.60
2023-02-26T11:38:00.252Z,6.50
2023-02-26T11:41:01.976Z,6.30
2023-02-26T11:44:07.058Z,6.20
2023-02-26T11:47:20.204Z,6.20
2023-02-26T11:50:25.953Z,6.20
2023-02-26T11:53:41.837Z,6.40
2023-02-26T11:56:43.524Z,6.70
2023-02-26T11:59:49.093Z,7.00
2023-02-26T12:02:50.840Z,7.10
2023-02-26T12:05:53.270Z,7.20
2023-02-26T12:08:55.047Z,7.20
2023-02-26T12:12:12.215Z,7.30
2023-02-26T12:15:36.226Z,7.40
2023-02-26T12:18:55.494Z,7.30
2023-02-26T12:22:03.114Z,7.30
2023-02-26T12:25:28.877Z,7.20
2023-02-26T12:28:42.723Z,7.10
2023-02-26T12:32:06.352Z,6.90
2023-02-26T12:35:30.928Z,6.90
2023-02-26T12:38:43.034Z,6.70
2023-02-26T12:41:58.448Z,6.40
2023-02-26T12:45:06.304Z,6.10
2023-02-26T12:48:32.411Z,5.80
2023-02-26T12:51:47.250Z,5.60
2023-02-26T12:54:56.385Z,5.50
2023-02-26T12:58:19.214Z,5.40
2023-02-26T13:02:10.329Z,5.40
2023-02-26T13:05:27.211Z,5.50
2023-02-26T13:08:54.325Z,5.50
2023-02-26T13:12:10.455Z,5.50
2023-02-26T13:15:30.901Z,5.50
2023-02-26T13:18:48.778Z,5.50
2023-02-26T13:22:02.948Z,5.50
2023-02-26T13:25:26.537Z,5.50
2023-02-26T13:28:47.539Z,5.50
2023-02-26T13:31:59.301Z,5.60
2023-02-26T13:35:08.109Z,5.80
2023-02-26T13:38:23.604Z,5.90
2023-02-26T13:41:32.043Z,6.00
2023-02-26T13:44:46.020Z,6.20
2023-02-26T13:47:50.516Z,6.30
2023-02-26T13:51:07.491Z,6.30
2023-02-26T13:54:17.106Z,6.40
2023-02-26T13:57:29.050Z,6.60
2023-02-26T14:00:35.012Z,6.60
2023-02-26T14:03:42.639Z,6.60
2023-02-26T14:07:00.817Z,6.40
2023-02-26T14:10:13.121Z,6.20
2023-02-26T14:13:18.405Z,6.00
2023-02-26T14:16:23.704Z,5.90
2023-02-26T14:19:29.685Z,5.90
2023-02-26T14:22:32.421Z,5.90
2023-02-26T14:25:42.086Z,5.90
2023-02-26T14:28:44.890Z,5.80
2023-02-26T14:32:11.607Z,5.80
2023-02-26T14:35:24.915Z,5.80
2023-02-26T14:38:37.272Z,5.80
2023-02-26T14:41:41.167Z,5.80
2023-02-26T14:44:49.021Z,5.70
2023-02-26T14:47:50.716Z,5.60
2023-02-26T14:51:16.534Z,5.60
2023-02-26T14:54:37.048Z,5.50
2023-02-26T14:57:47.837Z,5.50
2023-02-26T15:01:21.742Z,5.50
2023-02-26T15:04:34.499Z,5.60
2023-02-26T15:07:48.598Z,5.60
2023-02-26T15:10:59.285Z,5.60
2023-02-26T15:14:34.216Z,5.70
2023-02-26T15:18:07.788Z,5.70
2023-02-26T15:21:34.028Z,5.80
2023-02-26T15:24:35.887Z,5.80
2023-02-26T15:27:37.562Z,5.80
2023-02-26T15:30:39.620Z,5.80
2023-02-26T15:33:41.552Z,5.90
2023-02-26T15:36:45.163Z,5.80
2023-02-26T15:39:48.961Z,5.90
2023-02-26T15:42:52.636Z,6.00
2023-02-26T15:45:55.607Z,6.20
2023-02-26T15:49:09.011Z,6.70
2023-02-26T15:52:13.794Z,7.60
2023-02-26T15:55:16.452Z,8.90
2023-02-26T15:58:22.130Z,9.80
2023-02-26T16:01:24.994Z,10.60
2023-02-26T16:04:26.794Z,10.90
2023-02-26T16:07:28.457Z,10.40
2023-02-26T16:10:34.349Z,9.50
2023-02-26T16:13:41.860Z,8.50
2023-02-26T16:16:47.822Z,7.60
2023-02-26T16:19:50.145Z,7.00
2023-02-26T16:22:57.700Z,6.60
2023-02-26T16:26:01.371Z,6.40
2023-02-26T16:29:06.252Z,6.90
2023-02-26T16:32:09.573Z,7.20
2023-02-26T16:35:16.150Z,7.40
2023-02-26T16:38:28.646Z,7.50
2023-02-26T16:41:32.437Z,7.20
2023-02-26T16:44:34.367Z,6.90
2023-02-26T16:47:37.955Z,6.60
2023-02-26T16:50:39.596Z,6.50
2023-02-26T16:53:49.569Z,6.40
2023-02-26T16:57:03.257Z,6.20
2023-02-26T17:00:13.953Z,6.10
2023-02-26T17:03:18.214Z,6.00
2023-02-26T17:06:20.363Z,5.90
2023-02-26T17:09:38.169Z,5.80
2023-02-26T17:12:50.456Z,5.70
2023-02-26T17:15:54.065Z,5.60
2023-02-26T17:18:55.982Z,5.50
2023-02-26T17:21:58.878Z,5.40
2023-02-26T17:25:00.604Z,5.30
2023-02-26T17:28:02.733Z,5.10
2023-02-26T17:31:05.356Z,5.10
2023-02-26T17:34:10.401Z,5.00
2023-02-26T17:37:12.691Z,4.90
2023-02-26T17:40:29.412Z,4.70
2023-02-26T17:43:31.252Z,4.70
2023-02-26T17:46:34.236Z,4.50
2023-02-26T17:49:35.945Z,4.50
2023-02-26T17:52:37.663Z,4.40
2023-02-26T17:55:39.768Z,4.30
2023-02-26T17:58:41.483Z,4.30
2023-02-26T18:01:43.147Z,4.30
2023-02-26T18:04:45.155Z,4.30
2023-02-26T18:07:47.687Z,4.30
2023-02-26T18:10:49.951Z,4.20
2023-02-26T18:13:52.459Z,4.20
2023-02-26T18:16:55.276Z,4.20
2023-02-26T18:19:57.263Z,4.10
2023-02-26T18:22:59.112Z,4.10
2023-02-26T18:26:02.578Z,4.00
2023-02-26T18:29:04.293Z,3.90
2023-02-26T18:32:06.464Z,3.90
2023-02-26T18:35:08.685Z,3.90
2023-02-26T18:38:13.908Z,3.80
2023-02-26T18:41:15.560Z,3.70
2023-02-26T18:44:17.388Z,3.70
2023-02-26T18:47:19.860Z,3.60
2023-02-26T18:50:21.590Z,3.60
2023-02-26T18:53:23.731Z,3.50
2023-02-26T18:56:25.471Z,3.50
2023-02-26T18:59:27.278Z,3.40
2023-02-26T19:02:29.413Z,3.30
2023-02-26T19:05:31.178Z,3.30
2023-02-26T19:08:33.277Z,3.20
2023-02-26T19:11:37.609Z,3.10
2023-02-26T19:14:39.325Z,3.10
2023-02-26T19:17:41.417Z,3.10
2023-02-26T19:20:43.212Z,3.00
2023-02-26T19:23:45.017Z,3.00
2023-02-26T19:26:46.855Z,2.90
2023-02-26T19:29:48.621Z,2.90
2023-02-26T19:32:53.136Z,2.90
2023-02-26T19:35:55.323Z,2.80
2023-02-26T19:38:56.997Z,2.80
2023-02-26T19:42:17.983Z,2.80
2023-02-26T19:45:19.976Z,2.70
2023-02-26T19:48:22.208Z,2.70
2023-02-26T19:51:23.911Z,2.70
2023-02-26T19:54:25.857Z,2.70
2023-02-26T19:57:27.940Z,2.60
2023-02-26T20:00:29.583Z,2.50
2023-02-26T20:03:31.844Z,2.50
2023-02-26T20:06:33.509Z,2.50
2023-02-26T20:09:35.162Z,2.50
2023-02-26T20:12:40.040Z,2.40
2023-02-26T20:15:42.065Z,2.40
2023-02-26T20:18:45.715Z,2.40
2023-02-26T20:21:48.730Z,2.30
2023-02-26T20:24:52.188Z,2.30
2023-02-26T20:27:53.847Z,2.20
2023-02-26T20:30:55.565Z,2.20
2023-02-26T20:33:58.213Z,2.20
2023-02-26T20:36:59.956Z,2.10
2023-02-26T20:40:01.610Z,2.10
2023-02-26T20:43:04.480Z,2.10
2023-02-26T20:46:06.192Z,2.10
2023-02-26T20:49:11.722Z,2.00
2023-02-26T20:52:13.469Z,2.00
2023-02-26T20:55:15.183Z,2.00
2023-02-26T20:58:16.937Z,1.90
2023-02-26T21:01:18.662Z,1.90
2023-02-26T21:04:21.021Z,1.90
2023-02-26T21:07:22.766Z,1.90
2023-02-26T21:10:24.470Z,1.90
2023-02-26T21:13:26.199Z,1.80
2023-02-26T21:16:30.905Z,1.80
2023-02-26T21:19:32.607Z,1.70
2023-02-26T21:22:35.528Z,1.70
2023-02-26T21:25:38.415Z,1.70
2023-02-26T21:28:40.221Z,1.60
2023-02-26T21:31:41.956Z,1.60
2023-02-26T21:34:43.612Z,1.50
2023-02-26T21:37:45.388Z,1.50
2023-02-26T21:40:47.369Z,1.50
2023-02-26T21:43:50.362Z,1.40
2023-02-26T21:46:52.052Z,1.50
2023-02-26T21:49:53.704Z,1.50
2023-02-26T21:52:55.749Z,1.40
2023-02-26T21:55:58.082Z,1.40
2023-02-26T21:59:00.044Z,1.40
2023-02-26T22:02:02.118Z,1.40
2023-02-26T22:05:05.075Z,1.40
2023-02-26T22:08:06.769Z,1.40
2023-02-26T22:11:08.408Z,1.40
2023-02-26T22:14:10.316Z,1.40
2023-02-26T22:17:12.021Z,1.30
2023-02-26T22:20:14.105Z,1.20
2023-02-26T22:23:16.241Z,1.20
2023-02-26T22:26:17.947Z,1.20
2023-02-26T22:29:19.784Z,1.20
2023-02-26T22:32:21.545Z,1.10
2023-02-26T22:35:23.539Z,1.10
2023-02-26T22:38:25.224Z,1.10
2023-02-26T22:41:26.856Z,1.10
2023-02-26T22:44:28.762Z,1.00
2023-02-26T22:47:31.088Z,1.00
2023-02-26T22:50:33.223Z,1.00
2023-02-26T22:53:35.198Z,1.00
2023-02-26T22:56:36.818Z,0.90
2023-02-26T22:59:38.493Z,0.80
2023-02-26T23:02:40.206Z,0.80
2023-02-26T23:05:41.890Z,0.70
2023-02-26T23:08:43.656Z,0.60
2023-02-26T23:11:48.054Z,0.50
2023-02-26T23:14:49.683Z,0.50
2023-02-26T23:17:51.308Z,0.40
2023-02-26T23:20:52.986Z,0.30
2023-02-26T23:23:54.783Z,0.30
2023-02-26T23:26:56.420Z,0.30
2023-02-26T23:29:58.057Z,0.30
2023-02-26T23:32:59.880Z,0.20
2023-02-26T23:36:01.511Z,0.20
2023-02-26T23:39:03.303Z,0.10
2023-02-26T23:42:05.241Z,0.00
2023-02-26T23:45:07.512Z,0.00
2023-02-26T23:48:09.177Z,0.00
2023-02-26T23:51:10.812Z,0.00
2023-02-26T23:54:15.766Z,0.00
2023-02-26T23:57:17.565Z,-0.10
